KATW/ATW METAR and TAF weather

Enter ICAO airport designator
Station Type Date Time Source
KATW METAR 2022/12/08 12:45 UTC NOAA

KATW 081245Z VRB05KT 10SM BKN026 M06/M10 A3041


Station Type Date Time Source
KATW Decoded METAR 2022/12/08 12:45 UTC NOAA

Appleton / Outagamie, WI, United States (KATW) 44-15N 088-31W
Dec 08, 2022 - 07:45 AM EST / 2022.12.08 1245 UTC
Wind: Variable at 6 MPH (5 KT):0
Visibility: 10 mile(s):0
Sky conditions: mostly cloudy
Temperature: 21 F (-6 C)
Windchill: 14 F (-10 C):1
Dew Point: 14 F (-10 C)
Relative Humidity: 73%
Pressure (altimeter): 30.41 in. Hg (1029 hPa)
ob: KATW 081245Z VRB05KT 10SM BKN026 M06/M10 A3041
cycle: 13

Station Type Date Time Source
KATW TAF 2022/12/08 12:30 UTC NOAA

TAF KATW 081127Z 0812/0912 04007KT P6SM OVC025
FM081500 VRB03KT P6SM BKN030
FM081900 12004KT P6SM SCT035
FM090000 09004KT P6SM BKN250

Example: see airport list